Time;durP1;ratioP1;P1;durP2;ratioP2;P2;SDS_P1;SDS_P2;PMS_P1;PMS_P2;Temp;Humidity;BMP_temperature;BMP_pressure;BME280_temperature;BME280_humidity;BME280_pressure;Samples;Min_cycle;Max_cycle;Signal;HPM_P1;HPM_P2
2024/02/17 00:02:01;;;;;;;31.90;20.40;;;;;;;8.13;99.20;100835.81;105413;1262;98061;-76
2024/02/17 00:04:46;;;;;;;33.30;19.40;;;;;;;8.13;99.22;100832.67;105209;1257;98043;-76
2024/02/17 00:07:32;;;;;;;28.10;19.40;;;;;;;8.13;99.30;100830.35;105125;1262;99777;-76
2024/02/17 00:10:18;;;;;;;35.40;20.70;;;;;;;8.12;99.22;100828.51;105120;1262;102082;-77
2024/02/17 00:13:03;;;;;;;33.30;19.40;;;;;;;8.12;99.09;100829.95;105242;1262;99374;-77
2024/02/17 00:15:49;;;;;;;29.60;19.80;;;;;;;8.11;99.14;100831.27;105214;1258;97992;-77
2024/02/17 00:18:35;;;;;;;32.20;20.00;;;;;;;8.11;99.34;100828.81;105113;1262;99206;-76
2024/02/17 00:21:20;;;;;;;30.00;18.50;;;;;;;8.09;99.20;100825.95;105185;1257;98469;-76
2024/02/17 00:24:06;;;;;;;32.70;21.20;;;;;;;8.08;99.31;100825.38;105162;1259;101854;-76
2024/02/17 00:26:52;;;;;;;32.90;19.90;;;;;;;8.07;99.44;100830.06;105123;1259;100392;-77
2024/02/17 00:29:37;;;;;;;31.50;20.70;;;;;;;8.08;99.47;100831.07;105399;1260;97938;-77
2024/02/17 00:32:23;;;;;;;37.50;20.50;;;;;;;8.08;99.54;100831.80;105332;1262;97989;-75
2024/02/17 00:35:10;;;;;;;36.00;22.10;;;;;;;8.08;99.61;100831.45;105190;1257;98469;-76
2024/02/17 00:37:56;;;;;;;35.90;20.60;;;;;;;8.08;99.81;100832.98;108077;1259;101469;-78
2024/02/17 00:40:44;;;;;;;35.80;21.10;;;;;;;8.09;99.81;100832.17;105106;1262;99080;-77
2024/02/17 00:43:29;;;;;;;34.70;21.50;;;;;;;8.11;99.86;100832.20;105118;1262;99154;-76
2024/02/17 00:46:15;;;;;;;38.60;21.50;;;;;;;8.12;99.93;100830.51;105075;1264;99162;-77
2024/02/17 00:49:01;;;;;;;38.10;21.40;;;;;;;8.13;100.00;100833.02;105253;1259;97882;-78
2024/02/17 00:51:47;;;;;;;30.40;19.70;;;;;;;8.14;100.00;100834.11;105070;1257;101346;-76
2024/02/17 00:54:32;;;;;;;33.70;20.40;;;;;;;8.15;100.00;100831.38;105114;1262;99073;-76
2024/02/17 00:57:18;;;;;;;28.80;18.00;;;;;;;8.15;100.00;100831.70;105128;1259;98083;-76
2024/02/17 01:00:05;;;;;;;30.10;19.10;;;;;;;8.15;100.00;100830.77;105067;1259;97970;-76
2024/02/17 01:02:50;;;;;;;29.90;19.20;;;;;;;8.16;100.00;100825.91;105097;1262;97759;-76
2024/02/17 01:05:38;;;;;;;29.00;18.60;;;;;;;8.17;100.00;100825.84;105122;1259;101407;-76
2024/02/17 01:08:23;;;;;;;35.30;19.50;;;;;;;8.17;100.00;100821.48;105138;1262;100444;-75
2024/02/17 01:11:09;;;;;;;32.80;19.60;;;;;;;8.17;100.00;100821.84;105087;1260;97967;-77
2024/02/17 01:13:54;;;;;;;29.60;19.30;;;;;;;8.17;100.00;100818.88;105159;1262;97967;-77
2024/02/17 01:16:40;;;;;;;30.60;19.60;;;;;;;8.17;100.00;100817.44;105108;1265;98638;-76
2024/02/17 01:19:25;;;;;;;30.30;18.50;;;;;;;8.18;100.00;100816.65;105149;1262;101442;-76
2024/02/17 01:22:11;;;;;;;31.00;19.50;;;;;;;8.19;100.00;100817.56;105206;1262;99116;-79
2024/02/17 01:24:57;;;;;;;29.60;18.00;;;;;;;8.20;100.00;100818.70;105204;1262;98044;-77
2024/02/17 01:27:43;;;;;;;31.10;19.20;;;;;;;8.21;100.00;100815.06;105059;1259;97964;-75
2024/02/17 01:30:28;;;;;;;31.70;19.70;;;;;;;8.21;100.00;100817.55;105624;1262;99769;-78
2024/02/17 01:33:15;;;;;;;30.40;18.50;;;;;;;8.21;100.00;100816.35;105111;1262;101357;-76
2024/02/17 01:36:01;;;;;;;39.80;22.10;;;;;;;8.21;100.00;100817.57;105066;1262;99081;-75
2024/02/17 01:38:46;;;;;;;31.50;19.00;;;;;;;8.20;100.00;100814.30;104994;1271;140845;-75
2024/02/17 01:41:31;;;;;;;31.40;20.00;;;;;;;8.20;100.00;100813.94;105067;1260;98000;-76
2024/02/17 01:44:17;;;;;;;32.20;19.90;;;;;;;8.20;100.00;100813.20;105107;1262;97878;-77
2024/02/17 01:47:03;;;;;;;28.70;19.10;;;;;;;8.21;100.00;100816.88;105573;1262;102291;-78
2024/02/17 01:49:51;;;;;;;36.10;20.10;;;;;;;8.21;100.00;100812.77;105626;1258;101170;-77
2024/02/17 01:52:37;;;;;;;33.80;19.30;;;;;;;8.21;100.00;100814.37;105751;1259;97899;-78
2024/02/17 01:55:23;;;;;;;33.90;21.20;;;;;;;8.22;100.00;100814.45;105630;1260;97967;-78
2024/02/17 01:58:10;;;;;;;29.90;17.50;;;;;;;8.22;100.00;100810.27;105772;1260;97876;-77
2024/02/17 02:00:57;;;;;;;29.90;18.30;;;;;;;8.24;100.00;100810.80;105618;1260;101411;-77
2024/02/17 02:03:42;;;;;;;31.60;19.40;;;;;;;8.25;100.00;100810.36;105522;1262;100857;-76
2024/02/17 02:06:29;;;;;;;32.40;18.20;;;;;;;8.25;100.00;100808.61;105224;1257;97980;-77
2024/02/17 02:09:18;;;;;;;28.00;16.90;;;;;;;8.24;100.00;100808.11;105200;1262;98270;-76
2024/02/17 02:12:04;;;;;;;31.70;19.00;;;;;;;8.26;100.00;100799.25;105670;1262;98447;-77
2024/02/17 02:15:12;;;;;;;28.40;18.10;;;;;;;8.27;100.00;100797.50;105693;1262;101329;-79
2024/02/17 02:17:58;;;;;;;34.50;19.10;;;;;;;8.29;100.00;100795.57;105577;1260;99081;-77
2024/02/17 02:20:44;;;;;;;32.50;19.80;;;;;;;8.29;100.00;100796.23;105632;1262;99010;-77
2024/02/17 02:23:31;;;;;;;26.20;17.50;;;;;;;8.29;100.00;100793.00;105608;1262;97874;-77
2024/02/17 02:26:16;;;;;;;32.70;18.00;;;;;;;8.29;100.00;100787.45;105650;1263;98497;-77
2024/02/17 02:29:02;;;;;;;29.10;17.60;;;;;;;8.30;100.00;100786.48;105362;1268;110968;-76
2024/02/17 02:31:48;;;;;;;29.00;17.70;;;;;;;8.30;100.00;100789.52;105192;1264;99248;-79
2024/02/17 02:34:33;;;;;;;27.50;17.90;;;;;;;8.30;100.00;100789.84;105962;1262;99048;-76
2024/02/17 02:37:27;;;;;;;30.10;17.30;;;;;;;8.30;100.00;100790.76;105227;1263;99838;-75
2024/02/17 02:40:13;;;;;;;29.10;17.40;;;;;;;8.30;100.00;100789.94;105147;1263;98605;-77
2024/02/17 02:42:58;;;;;;;31.20;18.90;;;;;;;8.30;100.00;100786.15;105194;1262;101402;-76
2024/02/17 02:45:44;;;;;;;28.90;17.40;;;;;;;8.30;100.00;100788.41;105117;1266;100465;-77
2024/02/17 02:48:30;;;;;;;27.70;17.50;;;;;;;8.30;100.00;100787.39;105038;1260;98965;-76
2024/02/17 02:51:19;;;;;;;30.40;18.20;;;;;;;8.29;100.00;100784.45;105090;1271;97964;-76
2024/02/17 02:54:04;;;;;;;24.60;16.80;;;;;;;8.29;100.00;100784.79;105007;1263;97962;-77
2024/02/17 02:56:50;;;;;;;26.10;17.00;;;;;;;8.30;100.00;100783.34;105088;1263;101368;-76
2024/02/17 02:59:35;;;;;;;28.60;17.70;;;;;;;8.29;100.00;100785.52;105096;1263;100328;-77
2024/02/17 03:02:21;;;;;;;27.60;16.50;;;;;;;8.30;100.00;100790.48;105223;1263;98572;-75
2024/02/17 03:05:07;;;;;;;29.20;16.10;;;;;;;8.30;100.00;100790.05;105793;1262;98063;-77
2024/02/17 03:07:53;;;;;;;26.50;16.40;;;;;;;8.31;100.00;100792.95;105812;1263;97871;-76
2024/02/17 03:10:38;;;;;;;29.30;17.00;;;;;;;8.33;100.00;100791.20;105213;1257;102032;-77
2024/02/17 03:13:24;;;;;;;27.40;17.20;;;;;;;8.33;100.00;100783.98;105372;1261;99722;-76
2024/02/17 03:16:10;;;;;;;27.60;17.30;;;;;;;8.33;100.00;100788.96;105128;1262;99169;-77
2024/02/17 03:18:55;;;;;;;26.20;16.40;;;;;;;8.33;100.00;100792.36;105066;1258;97776;-75
2024/02/17 03:21:41;;;;;;;26.30;16.50;;;;;;;8.33;100.00;100793.77;105554;1261;98553;-77
2024/02/17 03:24:26;;;;;;;26.80;16.90;;;;;;;8.33;100.00;100793.09;105054;1273;102745;-77
2024/02/17 03:27:12;;;;;;;26.00;15.30;;;;;;;8.33;100.00;100794.19;105374;1257;99802;-77
2024/02/17 03:29:58;;;;;;;27.20;16.80;;;;;;;8.32;100.00;100791.83;105114;1263;99589;-77
2024/02/17 03:32:44;;;;;;;26.90;16.70;;;;;;;8.32;100.00;100796.46;105287;1262;97973;-77
2024/02/17 03:35:29;;;;;;;28.30;16.60;;;;;;;8.32;100.00;100797.70;105044;1263;99659;-76
2024/02/17 03:38:15;;;;;;;25.00;16.90;;;;;;;8.32;100.00;100794.11;105117;1259;102367;-76
2024/02/17 03:41:00;;;;;;;29.10;16.20;;;;;;;8.33;100.00;100794.90;105079;1262;99111;-77
2024/02/17 03:43:46;;;;;;;25.60;16.00;;;;;;;8.34;100.00;100795.48;105157;1262;99331;-76
2024/02/17 03:46:32;;;;;;;25.40;16.60;;;;;;;8.34;100.00;100796.39;105453;1261;97991;-76
2024/02/17 03:49:20;;;;;;;26.70;16.40;;;;;;;8.34;100.00;100799.70;105564;1258;97938;-78
2024/02/17 03:52:07;;;;;;;26.60;16.40;;;;;;;8.36;100.00;100799.48;105513;1258;102613;-76
2024/02/17 03:54:52;;;;;;;27.10;15.70;;;;;;;8.38;100.00;100805.13;105300;1257;100369;-77
2024/02/17 03:57:38;;;;;;;28.80;17.60;;;;;;;8.38;100.00;100806.92;105364;1263;97980;-77
2024/02/17 04:00:24;;;;;;;24.40;14.80;;;;;;;8.39;100.00;100807.20;105214;1263;98059;-76
2024/02/17 04:03:09;;;;;;;23.60;15.80;;;;;;;8.40;100.00;100811.77;105306;1262;97992;-76
2024/02/17 04:05:55;;;;;;;24.00;16.30;;;;;;;8.41;100.00;100811.30;105148;1264;101373;-76
2024/02/17 04:08:41;;;;;;;24.80;15.80;;;;;;;8.42;100.00;100811.80;105151;1258;99097;-78
2024/02/17 04:11:26;;;;;;;27.60;15.30;;;;;;;8.43;100.00;100813.67;105075;1257;98874;-78
2024/02/17 04:14:12;;;;;;;21.70;15.40;;;;;;;8.45;100.00;100815.84;105154;1262;98049;-77
2024/02/17 04:16:57;;;;;;;22.80;15.20;;;;;;;8.46;100.00;100816.38;105151;1263;97968;-76
2024/02/17 04:19:44;;;;;;;23.20;14.80;;;;;;;8.48;100.00;100818.48;105123;1262;101345;-74
2024/02/17 04:22:29;;;;;;;21.90;14.80;;;;;;;8.50;100.00;100819.48;105507;1262;99147;-75
2024/02/17 04:25:15;;;;;;;20.80;14.00;;;;;;;8.52;100.00;100819.98;105199;1263;99763;-76
2024/02/17 04:28:03;;;;;;;20.10;13.60;;;;;;;8.55;100.00;100823.04;105149;1263;98033;-76
2024/02/17 04:30:49;;;;;;;24.70;14.90;;;;;;;8.58;100.00;100825.38;105079;1263;97887;-77
2024/02/17 04:33:38;;;;;;;21.00;13.90;;;;;;;8.61;100.00;100827.78;105121;1257;101420;-77
2024/02/17 04:36:24;;;;;;;23.70;14.90;;;;;;;8.64;100.00;100831.20;105162;1264;99334;-79
2024/02/17 04:39:13;;;;;;;37.70;21.40;;;;;;;8.66;100.00;100830.90;105391;1263;98963;-77
2024/02/17 04:41:58;;;;;;;28.40;18.30;;;;;;;8.70;100.00;100836.42;105553;1257;97879;-77
2024/02/17 04:44:44;;;;;;;23.60;16.70;;;;;;;8.72;100.00;100834.50;105589;1261;98617;-77
2024/02/17 04:47:31;;;;;;;24.90;18.20;;;;;;;8.75;100.00;100840.23;105704;1261;101354;-78
2024/02/17 04:50:17;;;;;;;25.90;18.80;;;;;;;8.78;100.00;100842.24;105577;1261;99341;-76
2024/02/17 04:53:02;;;;;;;27.40;21.50;;;;;;;8.80;100.00;100845.56;105164;1258;98850;-79
2024/02/17 04:55:49;;;;;;;24.70;15.80;;;;;;;8.82;100.00;100850.31;105687;1264;97899;-78
2024/02/17 04:58:35;;;;;;;24.50;15.20;;;;;;;8.83;100.00;100852.11;105608;1257;97852;-77
2024/02/17 05:01:22;;;;;;;23.70;14.80;;;;;;;8.85;100.00;100854.48;105321;1258;102541;-76
2024/02/17 05:04:08;;;;;;;21.80;14.10;;;;;;;8.86;100.00;100852.42;105205;1257;99420;-76
2024/02/17 05:06:55;;;;;;;22.70;15.30;;;;;;;8.86;100.00;100853.84;105518;1264;97749;-77
2024/02/17 05:09:41;;;;;;;24.20;15.30;;;;;;;8.85;100.00;100857.26;105070;1258;97967;-76
2024/02/17 05:12:26;;;;;;;22.30;14.70;;;;;;;8.85;100.00;100857.98;105088;1258;98390;-78
2024/02/17 05:15:12;;;;;;;23.90;15.60;;;;;;;8.84;100.00;100856.82;105137;1257;101446;-77
2024/02/17 05:17:58;;;;;;;24.40;15.90;;;;;;;8.84;100.00;100859.89;105689;1257;100354;-77
2024/02/17 05:20:44;;;;;;;24.70;16.90;;;;;;;8.84;100.00;100861.89;105690;1257;99032;-78
2024/02/17 05:23:29;;;;;;;23.50;15.30;;;;;;;8.83;100.00;100863.70;105489;1263;98724;-76
2024/02/17 05:26:15;;;;;;;24.50;16.60;;;;;;;8.83;100.00;100868.17;105524;1257;97908;-78
2024/02/17 05:29:05;;;;;;;25.10;16.00;;;;;;;8.83;100.00;100871.67;105581;1257;102211;-78
2024/02/17 05:31:51;;;;;;;24.30;16.20;;;;;;;8.84;100.00;100872.14;105785;1259;99189;-78
2024/02/17 05:34:39;;;;;;;27.00;16.60;;;;;;;8.85;100.00;100879.33;105394;1258;98800;-76
2024/02/17 05:37:25;;;;;;;27.10;16.40;;;;;;;8.86;100.00;100880.50;105204;1262;98564;-75
2024/02/17 05:40:12;;;;;;;23.60;17.10;;;;;;;8.87;100.00;100881.96;105601;1263;98498;-78
2024/02/17 05:42:57;;;;;;;26.10;18.00;;;;;;;8.88;100.00;100883.69;105545;1262;101364;-76
2024/02/17 05:45:43;;;;;;;27.60;18.10;;;;;;;8.88;100.00;100885.04;105078;1258;100424;-76
2024/02/17 05:48:28;;;;;;;26.30;19.00;;;;;;;8.89;100.00;100884.77;105177;1262;99059;-76
2024/02/17 05:51:14;;;;;;;24.60;18.30;;;;;;;8.90;100.00;100881.65;105198;1263;97900;-76
2024/02/17 05:53:59;;;;;;;27.30;20.20;;;;;;;8.90;100.00;100883.03;105116;1257;99282;-76
2024/02/17 05:56:45;;;;;;;26.70;18.60;;;;;;;8.92;100.00;100886.96;105087;1257;101414;-77
2024/02/17 05:59:31;;;;;;;28.90;18.80;;;;;;;8.94;100.00;100894.24;105351;1263;100380;-76
2024/02/17 06:02:16;;;;;;;25.40;19.00;;;;;;;8.95;100.00;100896.02;105118;1261;98455;-76
2024/02/17 06:05:03;;;;;;;25.60;17.80;;;;;;;8.96;100.00;100896.61;105122;1264;97839;-77
2024/02/17 06:07:48;;;;;;;25.20;18.30;;;;;;;8.98;100.00;100899.14;105097;1264;98604;-75
2024/02/17 06:10:34;;;;;;;24.70;18.30;;;;;;;8.99;100.00;100900.62;105229;1261;101385;-76
2024/02/17 06:13:20;;;;;;;26.60;19.40;;;;;;;9.01;100.00;100900.74;105245;1257;99888;-76
2024/02/17 06:16:06;;;;;;;25.70;19.70;;;;;;;9.02;100.00;100903.11;105119;1257;98682;-77
2024/02/17 06:21:56;;;;;;;27.10;20.20;;;;;;;9.04;100.00;100909.45;105091;1257;99759;-77
2024/02/17 06:24:42;;;;;;;26.30;19.90;;;;;;;9.06;100.00;100908.19;105061;1263;101330;-76
2024/02/17 06:27:28;;;;;;;28.00;21.00;;;;;;;9.07;100.00;100915.73;105254;1271;99048;-77
2024/02/17 06:30:14;;;;;;;29.80;21.90;;;;;;;9.08;100.00;100921.69;105184;1262;99096;-77
2024/02/17 06:33:00;;;;;;;30.60;21.60;;;;;;;9.09;100.00;100920.80;105129;1271;97995;-77
2024/02/17 06:35:46;;;;;;;31.80;23.20;;;;;;;9.10;100.00;100923.34;105411;1261;97922;-77
2024/02/17 06:38:32;;;;;;;31.40;22.20;;;;;;;9.12;100.00;100921.34;105327;1257;101384;-76
2024/02/17 06:41:21;;;;;;;31.10;23.30;;;;;;;9.14;100.00;100922.21;105410;1258;99131;-78
2024/02/17 06:44:06;;;;;;;29.60;22.00;;;;;;;9.16;100.00;100924.37;105234;1258;99038;-78
2024/02/17 06:46:53;;;;;;;34.90;23.90;;;;;;;9.17;100.00;100924.20;105367;1257;97879;-78
2024/02/17 06:49:39;;;;;;;30.30;23.30;;;;;;;9.19;100.00;100932.06;105448;1261;98421;-75
2024/02/17 06:52:24;;;;;;;33.30;24.10;;;;;;;9.20;100.00;100936.33;105378;1257;102663;-78
2024/02/17 06:55:10;;;;;;;40.60;29.80;;;;;;;9.21;100.00;100939.99;105476;1262;100380;-77
2024/02/17 06:57:55;;;;;;;37.40;28.30;;;;;;;9.21;100.00;100945.23;105440;1258;98676;-76
2024/02/17 07:00:41;;;;;;;40.90;31.40;;;;;;;9.23;100.00;100948.15;105172;1273;97900;-74
2024/02/17 07:03:28;;;;;;;60.00;42.30;;;;;;;9.25;100.00;100954.90;105101;1264;98548;-77
2024/02/17 07:06:16;;;;;;;46.40;34.20;;;;;;;9.26;100.00;100956.86;105118;1262;101344;-76
2024/02/17 07:09:02;;;;;;;47.30;37.30;;;;;;;9.27;100.00;100957.84;105019;1264;99305;-77
2024/02/17 07:11:48;;;;;;;51.10;42.90;;;;;;;9.29;100.00;100957.80;105082;1273;98973;-76
2024/02/17 07:14:34;;;;;;;48.80;41.20;;;;;;;9.30;100.00;100959.23;105140;1263;97956;-76
2024/02/17 07:17:19;;;;;;;47.50;37.30;;;;;;;9.31;100.00;100960.77;105085;1257;98591;-76
2024/02/17 07:20:06;;;;;;;44.80;32.50;;;;;;;9.31;100.00;100961.59;105164;1263;101362;-77
2024/02/17 07:22:52;;;;;;;40.70;32.00;;;;;;;9.32;100.00;100962.75;105911;1257;100475;-75
2024/02/17 07:25:37;;;;;;;42.90;33.20;;;;;;;9.33;100.00;100965.54;105329;1263;99692;-78
2024/02/17 07:28:23;;;;;;;44.90;32.50;;;;;;;9.34;100.00;100971.31;105209;1262;98247;-75
2024/02/17 07:31:13;;;;;;;38.40;29.40;;;;;;;9.36;100.00;100973.66;105102;1257;99123;-76
2024/02/17 07:33:59;;;;;;;40.10;28.90;;;;;;;9.36;100.00;100978.73;105243;1262;102686;-78
2024/02/17 07:36:46;;;;;;;40.00;28.20;;;;;;;9.37;100.00;100982.59;105133;1271;100381;-76
2024/02/17 07:39:35;;;;;;;39.90;28.90;;;;;;;9.38;100.00;100984.82;105119;1257;98400;-76
2024/02/17 07:42:22;;;;;;;38.90;27.50;;;;;;;9.39;100.00;100986.45;105146;1262;97895;-75
2024/02/17 07:45:08;;;;;;;41.30;27.30;;;;;;;9.40;100.00;100989.70;105135;1257;98462;-77
2024/02/17 07:47:53;;;;;;;36.00;25.90;;;;;;;9.42;100.00;100991.52;105189;1257;101333;-76
2024/02/17 07:50:39;;;;;;;35.50;26.30;;;;;;;9.43;100.00;100994.89;105127;1273;99330;-75
2024/02/17 07:53:27;;;;;;;40.90;28.80;;;;;;;9.45;100.00;100997.61;105116;1257;99277;-77
2024/02/17 07:56:13;;;;;;;39.70;29.70;;;;;;;9.47;100.00;100999.88;105397;1257;97896;-77
2024/02/17 07:58:58;;;;;;;39.00;28.40;;;;;;;9.48;100.00;101001.84;105485;1260;98516;-77
2024/02/17 08:01:44;;;;;;;44.70;29.70;;;;;;;9.50;100.00;101003.24;105452;1260;102598;-77
2024/02/17 08:04:30;;;;;;;40.00;29.70;;;;;;;9.51;100.00;101005.57;105555;1257;99954;-77
2024/02/17 08:07:15;;;;;;;40.00;28.20;;;;;;;9.52;100.00;101010.65;105478;1261;98039;-77
2024/02/17 08:10:01;;;;;;;34.80;26.80;;;;;;;9.53;100.00;101015.87;105434;1258;98478;-77
2024/02/17 08:12:46;;;;;;;39.50;27.80;;;;;;;9.54;100.00;101020.05;105312;1257;97918;-75
2024/02/17 08:15:32;;;;;;;38.70;29.80;;;;;;;9.56;100.00;101021.16;105406;1257;102244;-76
2024/02/17 08:18:18;;;;;;;42.00;30.60;;;;;;;9.56;100.00;101021.21;105213;1262;99127;-76
2024/02/17 08:21:04;;;;;;;38.90;27.70;;;;;;;9.58;100.00;101026.25;105267;1257;98063;-77
2024/02/17 08:23:49;;;;;;;40.70;28.80;;;;;;;9.59;100.00;101027.54;105168;1257;97949;-76
2024/02/17 08:26:35;;;;;;;40.80;30.00;;;;;;;9.60;100.00;101027.20;105116;1262;98638;-77
2024/02/17 08:29:21;;;;;;;37.00;27.60;;;;;;;9.61;100.00;101028.93;105156;1274;101381;-77
2024/02/17 08:32:06;;;;;;;36.90;27.20;;;;;;;9.62;100.00;101030.20;105093;1257;99809;-77
2024/02/17 08:34:52;;;;;;;38.90;28.20;;;;;;;9.63;100.00;101029.90;105121;1257;97922;-77
2024/02/17 08:37:38;;;;;;;42.50;28.90;;;;;;;9.65;100.00;101035.09;105250;1262;97967;-76
2024/02/17 08:40:24;;;;;;;34.40;25.20;;;;;;;9.65;100.00;101033.98;105512;1260;98479;-77
2024/02/17 08:43:11;;;;;;;35.90;27.90;;;;;;;9.66;100.00;101037.62;105631;1259;103142;-77
2024/02/17 08:45:56;;;;;;;35.40;26.70;;;;;;;9.67;100.00;101039.59;105827;1257;99240;-78
2024/02/17 08:48:42;;;;;;;33.70;26.80;;;;;;;9.69;100.00;101045.70;105536;1257;99056;-76
2024/02/17 08:51:27;;;;;;;36.70;26.30;;;;;;;9.70;100.00;101045.77;105413;1262;97964;-78
2024/02/17 08:54:16;;;;;;;33.90;26.00;;;;;;;9.70;100.00;101044.96;105215;1257;98521;-77
2024/02/17 08:57:01;;;;;;;34.20;26.50;;;;;;;9.72;100.00;101045.33;105428;1257;101374;-76
2024/02/17 08:59:47;;;;;;;33.80;25.70;;;;;;;9.73;100.00;101047.89;105276;1257;100388;-77
2024/02/17 09:02:33;;;;;;;40.30;30.60;;;;;;;9.74;100.00;101047.41;105435;1257;99498;-78
2024/02/17 09:05:18;;;;;;;39.00;30.20;;;;;;;9.76;100.00;101050.54;105480;1258;98071;-77
2024/02/17 09:08:04;;;;;;;37.70;27.20;;;;;;;9.79;100.00;101054.02;105438;1258;98088;-77
2024/02/17 09:10:50;;;;;;;37.10;28.10;;;;;;;9.81;100.00;101059.11;105519;1258;102131;-76
2024/02/17 09:13:35;;;;;;;38.60;27.80;;;;;;;9.84;100.00;101068.23;105159;1262;99718;-77
2024/02/17 09:16:21;;;;;;;35.80;26.00;;;;;;;9.85;100.00;101068.63;105057;1262;98989;-75
2024/02/17 09:19:07;;;;;;;36.20;26.30;;;;;;;9.86;100.00;101065.30;105171;1257;98608;-76
2024/02/17 09:21:52;;;;;;;36.80;26.10;;;;;;;9.89;100.00;101065.02;105130;1257;98515;-76
2024/02/17 09:24:38;;;;;;;36.70;27.30;;;;;;;9.91;100.00;101071.13;105166;1257;101362;-75
2024/02/17 09:27:23;;;;;;;37.40;26.60;;;;;;;9.94;100.00;101076.76;105115;1262;99413;-76
2024/02/17 09:30:09;;;;;;;35.30;24.60;;;;;;;9.95;100.00;101077.81;105144;1259;99336;-77
2024/02/17 09:32:55;;;;;;;38.00;26.20;;;;;;;9.98;100.00;101086.27;105084;1257;97973;-76
2024/02/17 09:35:41;;;;;;;36.00;26.10;;;;;;;9.99;100.00;101086.27;105218;1262;97952;-78
2024/02/17 09:38:26;;;;;;;37.00;27.60;;;;;;;10.01;100.00;101092.84;105235;1271;101300;-77
2024/02/17 09:41:12;;;;;;;41.30;31.10;;;;;;;10.03;100.00;101093.31;105454;1262;99235;-77
2024/02/17 09:43:58;;;;;;;38.40;29.90;;;;;;;10.06;100.00;101097.86;105486;1262;99247;-78
2024/02/17 09:46:44;;;;;;;45.20;31.60;;;;;;;10.08;100.00;101098.83;105253;1262;98708;-77
2024/02/17 09:49:34;;;;;;;38.90;29.40;;;;;;;10.10;100.00;101101.27;104999;1262;98580;-77
2024/02/17 09:52:20;;;;;;;41.00;30.60;;;;;;;10.12;100.00;101103.40;105103;1261;101408;-76
2024/02/17 09:55:07;;;;;;;42.60;31.60;;;;;;;10.13;100.00;101106.14;105151;1257;99636;-76
2024/02/17 09:57:52;;;;;;;39.20;28.90;;;;;;;10.14;100.00;101112.20;105132;1262;99496;-76
2024/02/17 10:00:38;;;;;;;36.10;26.60;;;;;;;10.14;100.00;101107.71;105208;1257;97970;-77
2024/02/17 10:03:25;;;;;;;35.60;27.30;;;;;;;10.15;100.00;101106.52;105074;1257;98489;-77
2024/02/17 10:06:11;;;;;;;37.30;26.00;;;;;;;10.16;100.00;101114.73;105583;1259;102207;-78
2024/02/17 10:08:57;;;;;;;37.60;28.40;;;;;;;10.19;100.00;101113.92;105740;1262;100055;-80
2024/02/17 10:11:43;;;;;;;54.70;40.90;;;;;;;10.22;100.00;101116.09;106249;1257;99010;-79
2024/02/17 10:14:29;;;;;;;50.40;34.60;;;;;;;10.25;100.00;101114.47;106203;1259;97957;-80
2024/02/17 10:17:14;;;;;;;52.50;38.80;;;;;;;10.30;100.00;101117.47;106389;1260;97973;-78
2024/02/17 10:20:02;;;;;;;47.50;34.00;;;;;;;10.35;100.00;101114.93;106363;1258;101325;-79
2024/02/17 10:22:47;;;;;;;44.70;31.80;;;;;;;10.41;100.00;101118.20;106283;1257;99229;-79
2024/02/17 10:25:34;;;;;;;43.00;29.50;;;;;;;10.46;100.00;101121.28;106376;1257;97807;-79
2024/02/17 10:28:20;;;;;;;38.80;29.00;;;;;;;10.52;100.00;101118.98;106299;1262;98465;-79
2024/02/17 10:31:06;;;;;;;40.00;30.40;;;;;;;10.57;100.00;101118.51;106406;1258;98464;-79
2024/02/17 10:33:51;;;;;;;42.70;30.80;;;;;;;10.60;100.00;101118.48;106438;1257;101459;-78
2024/02/17 10:36:38;;;;;;;40.50;28.50;;;;;;;10.61;100.00;101119.02;106552;1262;99145;-79
2024/02/17 10:39:25;;;;;;;34.30;25.90;;;;;;;10.62;100.00;101124.94;106458;1262;99078;-79
2024/02/17 10:42:10;;;;;;;31.70;24.80;;;;;;;10.64;100.00;101123.60;106460;1257;97882;-78
2024/02/17 10:45:00;;;;;;;31.90;23.60;;;;;;;10.63;100.00;101127.04;106508;1259;97814;-80
2024/02/17 10:47:47;;;;;;;33.00;24.40;;;;;;;10.63;100.00;101131.13;106528;1257;101343;-78
2024/02/17 10:50:36;;;;;;;30.30;23.00;;;;;;;10.63;100.00;101132.78;106392;1260;99041;-78
2024/02/17 10:53:31;;;;;;;30.40;24.40;;;;;;;10.63;100.00;101130.55;106408;1261;99376;-79
2024/02/17 10:56:20;;;;;;;30.60;24.10;;;;;;;10.64;100.00;101133.54;106390;1257;96502;-78
2024/02/17 10:59:07;;;;;;;30.90;23.30;;;;;;;10.64;100.00;101132.26;106185;1259;98028;-80
2024/02/17 11:01:56;;;;;;;31.30;23.20;;;;;;;10.66;100.00;101131.92;106135;1260;101492;-78
2024/02/17 11:04:44;;;;;;;30.10;22.70;;;;;;;10.67;100.00;101135.39;105943;1258;100397;-79
2024/02/17 11:07:32;;;;;;;27.90;21.60;;;;;;;10.70;100.00;101132.88;105987;1258;99244;-80
2024/02/17 11:10:27;;;;;;;28.30;22.50;;;;;;;10.73;100.00;101136.41;106504;1260;97958;-80
2024/02/17 11:13:28;;;;;;;34.50;24.50;;;;;;;10.78;100.00;101135.85;106612;1259;98396;-77
2024/02/17 11:16:14;;;;;;;26.40;21.00;;;;;;;10.83;100.00;101131.91;106785;1258;101367;-78
2024/02/17 11:19:00;;;;;;;30.70;22.10;;;;;;;10.88;100.00;101132.02;105957;1257;101048;-77
2024/02/17 11:21:46;;;;;;;29.00;22.80;;;;;;;10.96;100.00;101128.25;106125;1257;97982;-85
2024/02/17 11:24:37;;;;;;;32.80;23.50;;;;;;;11.03;100.00;101126.49;106632;1257;98051;-88
2024/02/17 11:27:33;;;;;;;28.90;21.00;;;;;;;11.10;100.00;101130.55;106434;1258;95891;-81
2024/02/17 11:30:56;;;;;;;24.60;19.60;;;;;;;11.15;100.00;101133.36;106403;1265;102589;-80
2024/02/17 11:33:42;;;;;;;23.20;18.80;;;;;;;11.22;100.00;101144.14;106419;1257;99144;-82
2024/02/17 11:36:33;;;;;;;23.60;19.40;;;;;;;11.26;100.00;101149.00;106470;1257;98876;-81
2024/02/17 11:39:20;;;;;;;19.70;16.00;;;;;;;11.27;100.00;101149.58;106591;1257;97929;-80
2024/02/17 11:42:06;;;;;;;19.40;15.60;;;;;;;11.26;100.00;101154.79;106552;1257;97939;-81
2024/02/17 11:44:54;;;;;;;20.90;16.50;;;;;;;11.24;100.00;101160.73;106563;1257;101443;-81
2024/02/17 11:47:39;;;;;;;14.90;13.20;;;;;;;11.22;100.00;101164.65;106516;1257;99360;-80
2024/02/17 11:50:25;;;;;;;13.30;10.30;;;;;;;11.21;100.00;101169.92;106531;1262;99012;-81
2024/02/17 11:53:10;;;;;;;11.10;8.80;;;;;;;11.21;100.00;101174.45;106359;1257;97897;-81
2024/02/17 11:56:00;;;;;;;10.40;6.80;;;;;;;11.17;100.00;101179.37;106505;1257;98396;-82
2024/02/17 11:58:46;;;;;;;10.40;7.30;;;;;;;11.15;100.00;101180.18;106411;1262;101561;-81
2024/02/17 12:01:36;;;;;;;11.80;7.60;;;;;;;11.15;100.00;101187.12;106528;1257;99315;-82
2024/02/17 12:04:22;;;;;;;8.60;6.90;;;;;;;11.17;100.00;101184.02;106402;1262;97983;-81
2024/02/17 12:07:08;;;;;;;9.00;5.30;;;;;;;11.20;100.00;101181.90;106429;1257;97916;-82
2024/02/17 12:09:53;;;;;;;7.40;5.50;;;;;;;11.23;100.00;101186.08;106510;1262;97338;-81
2024/02/17 12:12:40;;;;;;;7.10;5.00;;;;;;;11.24;100.00;101185.70;106468;1259;101330;-81
2024/02/17 12:15:26;;;;;;;7.00;4.50;;;;;;;11.27;100.00;101186.83;106250;1261;99809;-80
2024/02/17 12:18:12;;;;;;;6.40;4.70;;;;;;;11.29;100.00;101188.89;106308;1257;99022;-82
2024/02/17 12:21:07;;;;;;;4.70;4.00;;;;;;;11.29;100.00;101184.39;106411;1259;97993;-88
2024/02/17 12:23:55;;;;;;;5.00;4.00;;;;;;;11.34;100.00;101178.13;106484;1257;96594;-88
2024/02/17 12:26:42;;;;;;;9.40;5.10;;;;;;;11.42;100.00;101175.89;106065;1257;101431;-78
2024/02/17 12:29:28;;;;;;;11.40;5.90;;;;;;;11.50;100.00;101180.73;105827;1257;100405;-79